createdAt,value
2023-04-29T00:00:59.474Z,96551.19
2023-04-29T00:05:00.481Z,96549.78
2023-04-29T00:09:04.754Z,96541.44
2023-04-29T00:13:05.372Z,96531.78
2023-04-29T00:17:05.725Z,96549.53
2023-04-29T00:21:06.376Z,96544.16
2023-04-29T00:25:12.501Z,96537.88
2023-04-29T00:29:14.023Z,96521.59
2023-04-29T00:33:14.406Z,96531.97
2023-04-29T00:37:14.711Z,96484.25
2023-04-29T00:41:17.885Z,96500.31
2023-04-29T00:45:18.118Z,96545.41
2023-04-29T00:49:18.536Z,96538.81
2023-04-29T00:53:19.219Z,96535.59
2023-04-29T00:57:23.220Z,96535.16
2023-04-29T01:01:23.974Z,96519.06
2023-04-29T01:05:24.610Z,96533.59
2023-04-29T01:09:51.062Z,96518.88
2023-04-29T01:14:03.342Z,96534.59
2023-04-29T01:18:13.346Z,96523.22
2023-04-29T01:22:14.682Z,96529.56
2023-04-29T01:26:17.607Z,96506.69
2023-04-29T01:30:53.218Z,96522.84
2023-04-29T01:35:04.381Z,96495.84
2023-04-29T01:39:17.419Z,96520.34
2023-04-29T01:43:28.058Z,96522.25
2023-04-29T01:47:30.396Z,96507.78
2023-04-29T01:51:31.364Z,96505.94
2023-04-29T01:55:31.657Z,96527.94
2023-04-29T01:59:51.082Z,96523.50
2023-04-29T02:04:10.446Z,96520.56
2023-04-29T02:08:11.573Z,96530.78
2023-04-29T02:12:15.591Z,96544.28
2023-04-29T02:16:19.756Z,96542.69
2023-04-29T02:20:27.464Z,96547.25
2023-04-29T02:24:27.822Z,96553.19
2023-04-29T02:28:28.207Z,96550.44
2023-04-29T02:32:31.498Z,96555.88
2023-04-29T02:36:32.148Z,96557.97
2023-04-29T02:40:32.983Z,96522.72
2023-04-29T02:44:33.949Z,96525.06
2023-04-29T02:48:37.980Z,96538.44
2023-04-29T02:52:38.802Z,96501.63
2023-04-29T02:56:40.066Z,96560.69
2023-04-29T03:00:40.267Z,96530.28
2023-04-29T03:04:46.992Z,96542.59
2023-04-29T03:08:47.173Z,96530.50
2023-04-29T03:12:47.905Z,96526.78
2023-04-29T03:16:49.180Z,96536.88
2023-04-29T03:20:52.012Z,96542.28
2023-04-29T03:24:52.438Z,96538.13
2023-04-29T03:28:54.289Z,96511.97
2023-04-29T03:32:54.657Z,96532.16
2023-04-29T03:36:58.401Z,96522.31
2023-04-29T03:40:58.897Z,96526.38
2023-04-29T03:44:59.234Z,96526.06
2023-04-29T03:48:59.600Z,96529.56
2023-04-29T03:53:02.507Z,96532.09
2023-04-29T03:57:04.797Z,96535.13
2023-04-29T04:01:05.508Z,96535.19
2023-04-29T04:05:13.800Z,96548.41
2023-04-29T04:09:21.115Z,96547.03
2023-04-29T04:13:22.270Z,96539.56
2023-04-29T04:17:22.723Z,96553.06
2023-04-29T04:21:22.983Z,96546.03
2023-04-29T04:25:35.914Z,96550.84
2023-04-29T04:29:59.213Z,96565.78
2023-04-29T04:34:04.464Z,96543.88
2023-04-29T04:38:06.639Z,96564.16
2023-04-29T04:42:09.697Z,96560.66
2023-04-29T04:46:18.502Z,96575.09
2023-04-29T04:50:36.965Z,96554.97
2023-04-29T04:54:38.562Z,96561.69
2023-04-29T04:58:57.276Z,96570.19
2023-04-29T05:02:58.249Z,96554.66
2023-04-29T05:06:58.799Z,96586.97
2023-04-29T05:11:03.861Z,96587.63
2023-04-29T05:15:07.494Z,96586.94
2023-04-29T05:19:09.821Z,96583.94
2023-04-29T05:23:13.065Z,96587.47
2023-04-29T05:27:15.013Z,96606.13
2023-04-29T05:31:18.491Z,96594.50
2023-04-29T05:35:19.229Z,96602.41
2023-04-29T05:39:19.737Z,96608.72
2023-04-29T05:43:28.311Z,96609.00
2023-04-29T05:47:32.825Z,96607.91
2023-04-29T05:51:33.307Z,96609.94
2023-04-29T05:55:33.532Z,96615.56
2023-04-29T05:59:34.296Z,96612.66
2023-04-29T06:03:42.036Z,96627.44
2023-04-29T06:08:03.280Z,96630.56
2023-04-29T06:12:18.490Z,96635.16
2023-04-29T06:16:21.721Z,96630.31
2023-04-29T06:20:25.132Z,96637.56
2023-04-29T06:24:26.749Z,96644.03
2023-04-29T06:28:26.932Z,96645.34
2023-04-29T06:32:27.671Z,96652.78
2023-04-29T06:36:30.726Z,96655.50
2023-04-29T06:40:50.929Z,96650.44
2023-04-29T06:45:11.697Z,96649.34
2023-04-29T06:49:14.819Z,96665.00
2023-04-29T06:53:17.711Z,96635.28
2023-04-29T06:57:17.954Z,96662.31
2023-04-29T07:01:19.756Z,96667.13
2023-04-29T07:05:20.527Z,96667.13
2023-04-29T07:09:23.949Z,96672.69
2023-04-29T07:13:24.210Z,96678.19
2023-04-29T07:17:24.427Z,96667.59
2023-04-29T07:21:24.817Z,96678.75
2023-04-29T07:25:29.622Z,96682.06
2023-04-29T07:29:29.865Z,96674.09
2023-04-29T07:33:31.059Z,96668.72
2023-04-29T07:37:31.416Z,96688.75
2023-04-29T07:41:34.369Z,96661.13
2023-04-29T07:45:34.592Z,96692.00
2023-04-29T07:49:35.850Z,96700.09
2023-04-29T07:53:36.347Z,96691.47
2023-04-29T07:57:39.121Z,96696.50
2023-04-29T08:01:39.416Z,96709.91
2023-04-29T08:05:40.014Z,96695.91
2023-04-29T08:09:40.352Z,96710.16
2023-04-29T08:13:45.925Z,96711.94
2023-04-29T08:17:46.180Z,96709.38
2023-04-29T08:21:46.479Z,96706.13
2023-04-29T08:25:46.919Z,96722.53
2023-04-29T08:29:49.680Z,96720.47
2023-04-29T08:33:50.362Z,96729.09
2023-04-29T08:37:50.612Z,96725.38
2023-04-29T08:41:52.285Z,96729.03
2023-04-29T08:45:56.147Z,96745.22
2023-04-29T08:49:57.584Z,96738.94
2023-04-29T08:53:59.556Z,96740.56
2023-04-29T08:58:00.741Z,96736.50
2023-04-29T09:02:04.241Z,96739.41
2023-04-29T09:06:06.506Z,96739.19
2023-04-29T09:10:12.362Z,96750.59
2023-04-29T09:14:12.594Z,96750.28
2023-04-29T09:18:15.280Z,96748.03
2023-04-29T09:22:15.522Z,96739.09
2023-04-29T09:26:17.422Z,96756.72
2023-04-29T09:30:19.655Z,96739.44
2023-04-29T09:34:35.967Z,96751.88
2023-04-29T09:38:39.504Z,96738.97
2023-04-29T09:42:46.625Z,96752.44
2023-04-29T09:46:47.245Z,96763.41
2023-04-29T09:51:05.031Z,96768.97
2023-04-29T09:55:10.203Z,96771.09
2023-04-29T09:59:12.188Z,96771.31
2023-04-29T10:03:13.285Z,96767.31
2023-04-29T10:07:19.285Z,96779.41
2023-04-29T10:11:20.895Z,96787.00
2023-04-29T10:15:30.741Z,96781.00
2023-04-29T10:19:38.368Z,96784.91
2023-04-29T10:23:42.582Z,96759.91
2023-04-29T10:27:45.968Z,96773.16
2023-04-29T10:31:47.716Z,96783.47
2023-04-29T10:35:51.221Z,96789.56
2023-04-29T10:40:04.421Z,96786.41
2023-04-29T10:44:04.795Z,96803.25
2023-04-29T10:48:22.130Z,96765.72
2023-04-29T10:52:22.585Z,96787.94
2023-04-29T10:56:25.426Z,96787.81
2023-04-29T11:00:29.292Z,96769.47
2023-04-29T11:04:29.492Z,96746.69
2023-04-29T11:08:29.850Z,96751.13
2023-04-29T11:12:32.707Z,96766.19
2023-04-29T11:16:33.027Z,96764.19
2023-04-29T11:20:33.340Z,96768.81
2023-04-29T11:24:33.658Z,96768.81
2023-04-29T11:28:36.992Z,96778.41
2023-04-29T11:32:40.657Z,96765.16
2023-04-29T11:36:40.987Z,96771.25
2023-04-29T11:40:45.238Z,96774.22
2023-04-29T11:44:48.815Z,96756.94
2023-04-29T11:48:53.414Z,96698.66
2023-04-29T11:52:53.768Z,96774.78
2023-04-29T11:56:57.265Z,96785.28
2023-04-29T12:01:01.973Z,96763.28
2023-04-29T12:05:03.959Z,96785.97
2023-04-29T12:09:04.679Z,96794.44
2023-04-29T12:13:05.444Z,96791.47
2023-04-29T12:17:09.708Z,96780.97
2023-04-29T12:21:10.491Z,96795.38
2023-04-29T12:25:12.652Z,96806.22
2023-04-29T12:29:14.237Z,96806.25
2023-04-29T12:33:22.847Z,96805.00
2023-04-29T12:37:26.214Z,96812.44
2023-04-29T12:41:40.861Z,96810.50
2023-04-29T12:45:43.000Z,96820.56
2023-04-29T12:49:50.304Z,96828.31
2023-04-29T12:53:50.598Z,96812.00
2023-04-29T12:57:50.734Z,96804.56
2023-04-29T13:01:50.996Z,96819.91
2023-04-29T13:05:55.129Z,96808.81
2023-04-29T13:13:55.554Z,96819.19
2023-04-29T13:17:56.364Z,96805.56
2023-04-29T13:21:59.173Z,96819.97
2023-04-29T13:25:59.444Z,96825.53
2023-04-29T13:29:59.714Z,96807.56
2023-04-29T13:33:59.899Z,96821.31
2023-04-29T13:38:02.758Z,96829.22
2023-04-29T13:42:04.290Z,96830.75
2023-04-29T13:46:04.601Z,96837.84
2023-04-29T13:54:50.203Z,96823.97
2023-04-29T13:59:08.462Z,96839.94
2023-04-29T14:06:54.801Z,96850.84
2023-04-29T14:10:58.231Z,96838.59
2023-04-29T14:15:00.097Z,96839.72
2023-04-29T14:19:03.402Z,96845.19
2023-04-29T14:23:04.101Z,96843.94
2023-04-29T14:27:07.483Z,96851.44
2023-04-29T14:31:07.784Z,96857.19
2023-04-29T14:35:09.603Z,96851.00
2023-04-29T14:39:09.716Z,96857.41
2023-04-29T14:43:12.475Z,96861.06
2023-04-29T14:47:12.847Z,96854.72
2023-04-29T14:51:13.662Z,96855.81
2023-04-29T14:55:13.829Z,96858.88
2023-04-29T14:59:17.274Z,96858.78
2023-04-29T15:03:22.600Z,96861.66
2023-04-29T15:07:23.268Z,96868.44
2023-04-29T15:11:24.368Z,96873.78
2023-04-29T15:15:27.605Z,96879.16
2023-04-29T15:19:27.874Z,96868.09
2023-04-29T15:23:28.189Z,96866.09
2023-04-29T15:27:28.478Z,96885.91
2023-04-29T15:31:31.323Z,96885.91
2023-04-29T15:35:31.872Z,96858.84
2023-04-29T15:39:32.104Z,96900.91
2023-04-29T15:43:33.705Z,96893.44
2023-04-29T15:47:36.522Z,96907.44
2023-04-29T15:51:36.779Z,96900.84
2023-04-29T15:55:37.409Z,96902.91
2023-04-29T15:59:37.585Z,96905.38
2023-04-29T16:03:40.389Z,96907.38
2023-04-29T16:07:40.725Z,96912.22
2023-04-29T16:11:40.948Z,96926.44
2023-04-29T16:15:41.404Z,96934.75
2023-04-29T16:19:44.809Z,96940.47
2023-04-29T16:23:45.099Z,96934.44
2023-04-29T16:27:45.258Z,96952.56
2023-04-29T16:31:45.527Z,96955.16
2023-04-29T16:35:48.556Z,96955.56
2023-04-29T16:39:49.193Z,96972.94
2023-04-29T16:43:53.149Z,96974.97
2023-04-29T16:47:54.763Z,96964.97
2023-04-29T16:51:57.818Z,96983.50
2023-04-29T16:55:58.290Z,96986.28
2023-04-29T16:59:58.637Z,96977.91
2023-04-29T17:03:59.605Z,96980.81
2023-04-29T17:08:03.609Z,96998.19
2023-04-29T17:12:04.319Z,97005.56
2023-04-29T17:16:04.710Z,96995.19
2023-04-29T17:20:05.139Z,97003.91
2023-04-29T17:24:08.607Z,97007.41
2023-04-29T17:28:09.054Z,97001.13
2023-04-29T17:32:15.213Z,97002.06
2023-04-29T17:36:15.539Z,97015.97
2023-04-29T17:40:18.556Z,97015.03
2023-04-29T17:44:20.580Z,97024.00
2023-04-29T17:48:22.765Z,97028.13
2023-04-29T17:52:23.842Z,97027.28
2023-04-29T17:56:27.485Z,97021.56
2023-04-29T18:00:28.248Z,97034.50
2023-04-29T18:04:29.003Z,97051.38
2023-04-29T18:08:29.501Z,97049.34
2023-04-29T18:12:32.763Z,97054.63
2023-04-29T18:16:33.308Z,97038.00
2023-04-29T18:20:33.724Z,97056.91
2023-04-29T18:24:34.019Z,97055.59
2023-04-29T18:28:37.436Z,97056.22
2023-04-29T18:32:37.751Z,97071.44
2023-04-29T18:36:38.151Z,97066.13
2023-04-29T18:40:39.039Z,97067.38
2023-04-29T18:44:42.477Z,97066.47
2023-04-29T18:48:42.885Z,97076.88
2023-04-29T18:52:43.414Z,97081.97
2023-04-29T18:56:44.114Z,97078.38
2023-04-29T19:00:47.248Z,97106.94
2023-04-29T19:04:47.586Z,97117.13
2023-04-29T19:08:47.988Z,97118.72
2023-04-29T19:12:48.322Z,97114.97
2023-04-29T19:16:51.229Z,97118.72
2023-04-29T19:20:53.715Z,97126.91
2023-04-29T19:24:54.108Z,97143.34
2023-04-29T19:28:54.383Z,97146.09
2023-04-29T19:32:57.252Z,97147.25
2023-04-29T19:36:57.594Z,97148.56
2023-04-29T19:40:59.458Z,97148.81
2023-04-29T19:45:00.084Z,97158.00
2023-04-29T19:49:03.036Z,97157.69
2023-04-29T19:53:03.640Z,97144.03
2023-04-29T19:57:04.075Z,97166.53
2023-04-29T20:01:05.243Z,97155.31
2023-04-29T20:05:12.255Z,97136.50
2023-04-29T20:09:14.635Z,97167.56
2023-04-29T20:13:15.886Z,97049.44
2023-04-29T20:17:17.352Z,97159.63
2023-04-29T20:21:20.298Z,97162.38
2023-04-29T20:25:20.748Z,97166.16
2023-04-29T20:29:21.418Z,97161.34
2023-04-29T20:33:21.824Z,97160.31
2023-04-29T20:37:28.496Z,97150.72
2023-04-29T20:41:30.725Z,97176.47
2023-04-29T20:45:31.816Z,97127.75
2023-04-29T20:49:32.352Z,97116.31
2023-04-29T20:53:35.601Z,97178.09
2023-04-29T20:57:36.468Z,97125.19
2023-04-29T21:01:38.043Z,97185.19
2023-04-29T21:05:38.983Z,97160.59
2023-04-29T21:09:42.213Z,97048.13
2023-04-29T21:13:42.881Z,97171.84
2023-04-29T21:17:44.730Z,97135.97
2023-04-29T21:21:45.411Z,97192.69
2023-04-29T21:25:48.363Z,97133.81
2023-04-29T21:29:48.822Z,97119.16
2023-04-29T21:33:49.847Z,97061.09
2023-04-29T21:37:50.393Z,97192.28
2023-04-29T21:41:55.067Z,97183.75
2023-04-29T21:45:57.404Z,97210.03
2023-04-29T21:49:58.346Z,97137.97
2023-04-29T21:53:58.614Z,97208.94
2023-04-29T21:58:01.612Z,97214.88
2023-04-29T22:02:04.370Z,97211.66
2023-04-29T22:06:04.677Z,97215.94
2023-04-29T22:10:05.102Z,97205.75
2023-04-29T22:14:08.618Z,97204.16
2023-04-29T22:18:08.931Z,97192.38
2023-04-29T22:22:09.718Z,97223.97
2023-04-29T22:26:09.965Z,97232.56
2023-04-29T22:30:14.665Z,97230.44
2023-04-29T22:34:15.134Z,97218.09
2023-04-29T22:38:15.546Z,97220.25
2023-04-29T22:42:16.090Z,97227.22
2023-04-29T22:46:20.161Z,97184.88
2023-04-29T22:50:22.046Z,97232.28
2023-04-29T22:54:22.271Z,97214.34
2023-04-29T22:58:24.728Z,97232.56
2023-04-29T23:02:30.351Z,97236.88
2023-04-29T23:06:30.971Z,97240.91
2023-04-29T23:10:31.405Z,97234.19
2023-04-29T23:14:31.669Z,97226.69
2023-04-29T23:18:35.570Z,97232.59
2023-04-29T23:22:36.243Z,97239.56
2023-04-29T23:26:36.436Z,97247.59
2023-04-29T23:30:36.632Z,97237.69
2023-04-29T23:34:39.608Z,97187.25
2023-04-29T23:38:40.867Z,97236.34
2023-04-29T23:42:41.210Z,97237.69
2023-04-29T23:46:42.031Z,97236.84
2023-04-29T23:50:45.249Z,97203.09
2023-04-29T23:54:45.776Z,97230.19
2023-04-29T23:58:46.214Z,97234.72
